MOZZOZ YSSY-YSSY
Flight info
| Callsign | MOZZOZ |
|---|---|
| Flight time | 0h 2m |
| Altitude | 1000 |
| Route | YSSY YSSY |
| Aircraft | OZZI/L-V/N |
Departure
| Time | 2026-05-07 04:43 |
|---|---|
| Airport | Sydney Kingsford Smith International Airport (YSSY) |
Arrival
| Time | 2026-05-07 04:45 |
|---|---|
| Airport | Sydney Kingsford Smith International Airport (YSSY) |
| Time | Latitude | Longitude | Altitude | Speed | Heading |
|---|---|---|---|---|---|
| 2026-05-07 03:48 | -33.92765 | 151.17496 | 24 ft | 0 kts | 77° |
| 2026-05-07 03:50 | -33.92761 | 151.17536 | 66 ft | 5 kts | 221° |
| 2026-05-07 03:50 | -33.92733 | 151.17470 | 30 ft | 38 kts | 287° |
| 2026-05-07 03:50 | -33.92697 | 151.17486 | 24 ft | 0 kts | 131° |
| 2026-05-07 03:51 | -33.92703 | 151.17499 | 91 ft | 9 kts | 238° |
| 2026-05-07 03:51 | -33.93003 | 151.17340 | 89 ft | 69 kts | 212° |
| 2026-05-07 03:51 | -33.93327 | 151.17061 | 132 ft | 77 kts | 200° |
| 2026-05-07 03:51 | -33.93575 | 151.17135 | 249 ft | 24 kts | 221° |
| 2026-05-07 03:52 | -33.93626 | 151.17204 | 64 ft | 23 kts | 308° |
| 2026-05-07 03:52 | -33.93616 | 151.16969 | 156 ft | 54 kts | 319° |
| 2026-05-07 03:52 | -33.93745 | 151.17206 | 93 ft | 54 kts | 211° |
| 2026-05-07 03:52 | -33.93516 | 151.17181 | 146 ft | 51 kts | 331° |
| 2026-05-07 03:53 | -33.93163 | 151.17230 | 119 ft | 66 kts | 108° |
| 2026-05-07 03:53 | -33.93210 | 151.17679 | 164 ft | 59 kts | 167° |
| 2026-05-07 03:53 | -33.93520 | 151.17826 | 160 ft | 42 kts | 181° |
| 2026-05-07 03:53 | -33.93652 | 151.18317 | 175 ft | 83 kts | 86° |
| 2026-05-07 03:54 | -33.93753 | 151.18956 | 113 ft | 65 kts | 169° |
| 2026-05-07 03:54 | -33.93905 | 151.19125 | 68 ft | 11 kts | 265° |
| 2026-05-07 03:54 | -33.93901 | 151.19094 | 21 ft | 0 kts | 280° |
| 2026-05-07 03:55 | -33.93897 | 151.19100 | 28 ft | 3 kts | 280° |
| 2026-05-07 03:55 | -33.93827 | 151.18775 | 206 ft | 69 kts | 279° |
| 2026-05-07 03:55 | -33.93683 | 151.18369 | 60 ft | 35 kts | 274° |
| 2026-05-07 03:56 | -33.93635 | 151.18156 | 32 ft | 14 kts | 289° |
| 2026-05-07 03:56 | -33.93605 | 151.18065 | 35 ft | 13 kts | 289° |
| 2026-05-07 03:56 | -33.93486 | 151.17822 | 404 ft | 42 kts | 346° |
| 2026-05-07 03:56 | -33.93366 | 151.17870 | 1110 ft | 7 kts | 289° |
| 2026-05-07 03:57 | -33.93162 | 151.17725 | 100 ft | 36 kts | 327° |
| 2026-05-07 03:57 | -33.93119 | 151.17757 | 152 ft | 10 kts | 325° |
| 2026-05-07 03:57 | -33.92987 | 151.17576 | 90 ft | 45 kts | 290° |
| 2026-05-07 03:57 | -33.93064 | 151.17346 | 115 ft | 46 kts | 228° |
| 2026-05-07 03:58 | -33.93381 | 151.17302 | 47 ft | 56 kts | 230° |
| 2026-05-07 03:58 | -33.93689 | 151.16990 | 149 ft | 61 kts | 223° |
| 2026-05-07 03:58 | -33.93430 | 151.17002 | 157 ft | 33 kts | 275° |
| 2026-05-07 03:58 | -33.93613 | 151.17095 | 94 ft | 39 kts | 233° |
| 2026-05-07 03:59 | -33.93714 | 151.16897 | 210 ft | 35 kts | 324° |
| 2026-05-07 03:59 | -33.93436 | 151.16966 | 30 ft | 40 kts | 353° |
| 2026-05-07 03:59 | -33.93177 | 151.17076 | 183 ft | 95 kts | 42° |
| 2026-05-07 03:59 | -33.93282 | 151.17729 | 588 ft | 66 kts | 152° |
| 2026-05-07 04:00 | -33.93388 | 151.18054 | 372 ft | 54 kts | 162° |
| 2026-05-07 04:00 | -33.93437 | 151.18172 | 349 ft | 7 kts | 258° |
| 2026-05-07 04:00 | -33.93432 | 151.18124 | 306 ft | 17 kts | 192° |
| 2026-05-07 04:00 | -33.93400 | 151.18304 | 266 ft | 18 kts | 153° |
| 2026-05-07 04:01 | -33.93450 | 151.18612 | 241 ft | 4 kts | 261° |
| 2026-05-07 04:01 | -33.93501 | 151.18551 | 290 ft | 42 kts | 133° |
| 2026-05-07 04:01 | -33.93434 | 151.18837 | 132 ft | 34 kts | 190° |
| 2026-05-07 04:01 | -33.93556 | 151.18937 | 116 ft | 9 kts | 220° |
| 2026-05-07 04:02 | -33.93605 | 151.18894 | 113 ft | 11 kts | 239° |
| 2026-05-07 04:02 | -33.93656 | 151.18798 | 119 ft | 15 kts | 240° |
| 2026-05-07 04:02 | -33.93706 | 151.18648 | 108 ft | 32 kts | 243° |
| 2026-05-07 04:02 | -33.93917 | 151.18307 | 66 ft | 65 kts | 257° |
| 2026-05-07 04:03 | -33.94058 | 151.17773 | 114 ft | 63 kts | 259° |
| 2026-05-07 04:03 | -33.94171 | 151.17264 | 62 ft | 71 kts | 254° |
| 2026-05-07 04:03 | -33.94326 | 151.16732 | 50 ft | 68 kts | 253° |
| 2026-05-07 04:03 | -33.94160 | 151.17169 | 71 ft | 112 kts | 66° |
| 2026-05-07 04:04 | -33.93761 | 151.18036 | 43 ft | 122 kts | 70° |
| 2026-05-07 04:04 | -33.93743 | 151.18477 | 105 ft | 39 kts | 259° |
| 2026-05-07 04:04 | -33.93454 | 151.18188 | 93 ft | 86 kts | 343° |
| 2026-05-07 04:04 | -33.92991 | 151.18214 | 264 ft | 18 kts | 225° |
| 2026-05-07 04:05 | -33.93257 | 151.18138 | 168 ft | 58 kts | 218° |
| 2026-05-07 04:05 | -33.93521 | 151.17781 | 105 ft | 42 kts | 246° |
| 2026-05-07 04:05 | -33.93567 | 151.18175 | 65 ft | 52 kts | 171° |
| 2026-05-07 04:05 | -33.93780 | 151.18055 | 45 ft | 54 kts | 245° |
| 2026-05-07 04:06 | -33.93912 | 151.17539 | 56 ft | 63 kts | 256° |
| 2026-05-07 04:06 | -33.94110 | 151.17240 | 175 ft | 81 kts | 152° |
| 2026-05-07 04:06 | -33.94414 | 151.17764 | 285 ft | 73 kts | 176° |
| 2026-05-07 04:06 | -33.94923 | 151.17913 | 111 ft | 85 kts | 192° |
| 2026-05-07 04:07 | -33.95520 | 151.18063 | 33 ft | 88 kts | 188° |
| 2026-05-07 04:07 | -33.96079 | 151.18313 | 17 ft | 86 kts | 178° |
| 2026-05-07 04:07 | -33.96599 | 151.18594 | 41 ft | 79 kts | 181° |
| 2026-05-07 04:07 | -33.96426 | 151.18470 | 30 ft | 75 kts | 324° |
| 2026-05-07 04:08 | -33.95917 | 151.18263 | 38 ft | 79 kts | 330° |
| 2026-05-07 04:08 | -33.95414 | 151.18045 | 52 ft | 80 kts | 326° |
| 2026-05-07 04:08 | -33.94881 | 151.17886 | 61 ft | 79 kts | 330° |
| 2026-05-07 04:08 | -33.94311 | 151.17722 | 47 ft | 84 kts | 332° |
| 2026-05-07 04:09 | -33.93985 | 151.17314 | 21 ft | 68 kts | 294° |
| 2026-05-07 04:09 | -33.93612 | 151.17006 | 81 ft | 96 kts | 5° |
| 2026-05-07 04:09 | -33.93217 | 151.17605 | 124 ft | 85 kts | 89° |
| 2026-05-07 04:09 | -33.93453 | 151.17919 | 150 ft | 55 kts | 217° |
| 2026-05-07 04:10 | -33.93616 | 151.17607 | 30 ft | 48 kts | 265° |
| 2026-05-07 04:10 | -33.93590 | 151.17224 | 170 ft | 54 kts | 347° |
| 2026-05-07 04:10 | -33.93081 | 151.17322 | 132 ft | 79 kts | 340° |
| 2026-05-07 04:10 | -33.92750 | 151.17541 | 41 ft | 3 kts | 246° |
| 2026-05-07 04:11 | -33.92770 | 151.17452 | 29 ft | 0 kts | 278° |
| 2026-05-07 04:12 | -33.92803 | 151.17474 | 54 ft | 40 kts | 184° |
| 2026-05-07 04:12 | -33.92983 | 151.17984 | 236 ft | 46 kts | 217° |
| 2026-05-07 04:12 | -33.93353 | 151.18014 | 141 ft | 71 kts | 174° |
| 2026-05-07 04:13 | -33.93677 | 151.17961 | 106 ft | 52 kts | 278° |
| 2026-05-07 04:13 | -33.93394 | 151.17869 | 154 ft | 96 kts | 40° |
| 2026-05-07 04:13 | -33.93643 | 151.18205 | 119 ft | 42 kts | 257° |
| 2026-05-07 04:13 | -33.93806 | 151.17799 | 33 ft | 63 kts | 255° |
| 2026-05-07 04:14 | -33.93964 | 151.17280 | 31 ft | 66 kts | 258° |
| 2026-05-07 04:14 | -33.93775 | 151.17366 | 172 ft | 73 kts | 58° |
| 2026-05-07 04:14 | -33.93406 | 151.17920 | 155 ft | 95 kts | 49° |
| 2026-05-07 04:14 | -33.93531 | 151.17994 | 134 ft | 43 kts | 307° |
| 2026-05-07 04:15 | -33.93448 | 151.17784 | 238 ft | 19 kts | 277° |
| 2026-05-07 04:15 | -33.93165 | 151.17610 | 61 ft | 62 kts | 344° |
| 2026-05-07 04:15 | -33.92771 | 151.17620 | 31 ft | 48 kts | 332° |
| 2026-05-07 04:15 | -33.92603 | 151.17601 | 73 ft | 27 kts | 212° |
| 2026-05-07 04:16 | -33.92899 | 151.17632 | 37 ft | 41 kts | 212° |
| 2026-05-07 04:16 | -33.93130 | 151.17633 | 117 ft | 17 kts | 250° |
| 2026-05-07 04:16 | -33.93076 | 151.17525 | 106 ft | 40 kts | 317° |
| 2026-05-07 04:16 | -33.93010 | 151.17770 | 152 ft | 32 kts | 171° |
| 2026-05-07 04:17 | -33.93379 | 151.18003 | 170 ft | 65 kts | 185° |
| 2026-05-07 04:17 | -33.93720 | 151.17903 | 82 ft | 58 kts | 282° |
| 2026-05-07 04:17 | -33.93847 | 151.17458 | 67 ft | 59 kts | 257° |
| 2026-05-07 04:17 | -33.93995 | 151.16980 | 32 ft | 60 kts | 261° |
| 2026-05-07 04:18 | -33.94055 | 151.16504 | 95 ft | 49 kts | 266° |
| 2026-05-07 04:18 | -33.93873 | 151.16741 | 106 ft | 82 kts | 70° |
| 2026-05-07 04:18 | -33.93637 | 151.17397 | 123 ft | 97 kts | 52° |
| 2026-05-07 04:18 | -33.93554 | 151.18167 | 188 ft | 105 kts | 130° |
| 2026-05-07 04:19 | -33.93736 | 151.18490 | 116 ft | 28 kts | 279° |
| 2026-05-07 04:19 | -33.93770 | 151.18137 | 102 ft | 46 kts | 266° |
| 2026-05-07 04:19 | -33.93706 | 151.17702 | 40 ft | 67 kts | 309° |
| 2026-05-07 04:19 | -33.93208 | 151.17554 | 66 ft | 72 kts | 326° |
| 2026-05-07 04:20 | -33.93221 | 151.17786 | 325 ft | 22 kts | 228° |
| 2026-05-07 04:20 | -33.93548 | 151.17872 | 157 ft | 91 kts | 158° |
| 2026-05-07 04:20 | -33.93679 | 151.18127 | 66 ft | 41 kts | 178° |
| 2026-05-07 04:21 | -33.94285 | 151.18670 | 223 ft | 68 kts | 180° |
| 2026-05-07 04:21 | -33.94192 | 151.18619 | 136 ft | 70 kts | 14° |
| 2026-05-07 04:21 | -33.93831 | 151.18477 | 81 ft | 52 kts | 275° |
| 2026-05-07 04:21 | -33.93785 | 151.18159 | 42 ft | 58 kts | 278° |
| 2026-05-07 04:22 | -33.93754 | 151.17662 | 23 ft | 62 kts | 274° |
| 2026-05-07 04:22 | -33.93669 | 151.17564 | 154 ft | 76 kts | 117° |
| 2026-05-07 04:22 | -33.93606 | 151.18269 | 289 ft | 37 kts | 206° |
| 2026-05-07 04:22 | -33.93756 | 151.17893 | 78 ft | 57 kts | 282° |
| 2026-05-07 04:23 | -33.93706 | 151.18133 | 229 ft | 70 kts | 114° |
| 2026-05-07 04:23 | -33.93741 | 151.18482 | 162 ft | 46 kts | 243° |
| 2026-05-07 04:23 | -33.93785 | 151.17993 | 64 ft | 64 kts | 272° |
| 2026-05-07 04:23 | -33.93754 | 151.17648 | 82 ft | 44 kts | 333° |
| 2026-05-07 04:24 | -33.93613 | 151.17772 | 200 ft | 44 kts | 196° |
| 2026-05-07 04:24 | -33.93809 | 151.17713 | 124 ft | 51 kts | 256° |
| 2026-05-07 04:24 | -33.93956 | 151.17271 | 44 ft | 55 kts | 262° |
| 2026-05-07 04:24 | -33.94072 | 151.16850 | 97 ft | 54 kts | 259° |
| 2026-05-07 04:25 | -33.93819 | 151.16584 | 190 ft | 17 kts | 241° |
| 2026-05-07 04:25 | -33.93945 | 151.16659 | 83 ft | 32 kts | 216° |
| 2026-05-07 04:25 | -33.94020 | 151.16568 | 51 ft | 8 kts | 202° |
| 2026-05-07 04:25 | -33.94039 | 151.16596 | 17 ft | 6 kts | 287° |
| 2026-05-07 04:26 | -33.94039 | 151.16600 | 16 ft | 0 kts | 206° |
| 2026-05-07 04:26 | -33.94061 | 151.16600 | 17 ft | 4 kts | 216° |
| 2026-05-07 04:26 | -33.94010 | 151.16755 | 221 ft | 57 kts | 75° |
| 2026-05-07 04:26 | -33.93832 | 151.17416 | 176 ft | 107 kts | 85° |
| 2026-05-07 04:27 | -33.93714 | 151.18259 | 184 ft | 93 kts | 104° |
| 2026-05-07 04:27 | -33.93611 | 151.19009 | 235 ft | 72 kts | 150° |
| 2026-05-07 04:27 | -33.93711 | 151.19030 | 196 ft | 14 kts | 264° |
| 2026-05-07 04:27 | -33.93727 | 151.18972 | 43 ft | 18 kts | 215° |
| 2026-05-07 04:28 | -33.93848 | 151.18561 | 46 ft | 65 kts | 247° |
| 2026-05-07 04:28 | -33.93992 | 151.18035 | 100 ft | 64 kts | 249° |
| 2026-05-07 04:28 | -33.94138 | 151.17523 | 116 ft | 69 kts | 251° |
| 2026-05-07 04:28 | -33.94179 | 151.16927 | 104 ft | 76 kts | 259° |
| 2026-05-07 04:29 | -33.94007 | 151.16341 | 242 ft | 23 kts | 240° |
| 2026-05-07 04:29 | -33.94097 | 151.16643 | 318 ft | 46 kts | 207° |
| 2026-05-07 04:29 | -33.94018 | 151.16702 | 314 ft | 27 kts | 207° |
| 2026-05-07 04:29 | -33.94154 | 151.16359 | 134 ft | 70 kts | 296° |
| 2026-05-07 04:30 | -33.94063 | 151.16656 | 62 ft | 69 kts | 136° |
| 2026-05-07 04:30 | -33.93900 | 151.16868 | 73 ft | 55 kts | 310° |
| 2026-05-07 04:30 | -33.93794 | 151.16864 | 196 ft | 52 kts | 171° |
| 2026-05-07 04:30 | -33.94198 | 151.16882 | 152 ft | 68 kts | 212° |
| 2026-05-07 04:31 | -33.94405 | 151.16576 | 215 ft | 55 kts | 343° |
| 2026-05-07 04:31 | -33.94215 | 151.16976 | 77 ft | 76 kts | 112° |
| 2026-05-07 04:31 | -33.94462 | 151.17419 | 97 ft | 57 kts | 177° |
| 2026-05-07 04:31 | -33.94835 | 151.17598 | 62 ft | 59 kts | 189° |
| 2026-05-07 04:32 | -33.95248 | 151.17692 | 84 ft | 56 kts | 187° |
| 2026-05-07 04:32 | -33.95606 | 151.17746 | 117 ft | 52 kts | 198° |
| 2026-05-07 04:32 | -33.95947 | 151.17765 | 131 ft | 60 kts | 176° |
| 2026-05-07 04:32 | -33.95958 | 151.17862 | 60 ft | 50 kts | 324° |
| 2026-05-07 04:33 | -33.95804 | 151.17835 | 15 ft | 0 kts | 360° |
| 2026-05-07 04:36 | -33.95804 | 151.17836 | 16 ft | 0 kts | 352° |
| 2026-05-07 04:39 | -33.95804 | 151.17835 | 15 ft | 0 kts | 350° |
| 2026-05-07 04:40 | -33.95607 | 151.17818 | 95 ft | 54 kts | 1° |
| 2026-05-07 04:40 | -33.95162 | 151.17755 | 26 ft | 63 kts | 339° |
| 2026-05-07 04:40 | -33.94777 | 151.17645 | 20 ft | 51 kts | 336° |
| 2026-05-07 04:40 | -33.94485 | 151.17570 | 20 ft | 29 kts | 329° |
| 2026-05-07 04:41 | -33.94443 | 151.17340 | 160 ft | 61 kts | 268° |
| 2026-05-07 04:41 | -33.94037 | 151.16921 | 206 ft | 77 kts | 297° |
| 2026-05-07 04:41 | -33.93868 | 151.16754 | 275 ft | 53 kts | 212° |
| 2026-05-07 04:41 | -33.94039 | 151.16329 | 195 ft | 25 kts | 17° |
| 2026-05-07 04:42 | -33.94019 | 151.16508 | 165 ft | 19 kts | 269° |
| 2026-05-07 04:42 | -33.94037 | 151.16431 | 86 ft | 2 kts | 233° |
| 2026-05-07 04:42 | -33.94053 | 151.16398 | 47 ft | 7 kts | 238° |
| 2026-05-07 04:42 | -33.94056 | 151.16330 | 175 ft | 61 kts | 337° |
| 2026-05-07 04:43 | -33.93917 | 151.16450 | 404 ft | 38 kts | 337° |
| 2026-05-07 04:43 | -33.93606 | 151.16737 | 996 ft | 70 kts | 115° |
| 2026-05-07 04:43 | -33.93540 | 151.17217 | 1863 ft | 52 kts | 71° |
| 2026-05-07 04:43 | -33.93412 | 151.17514 | 2673 ft | 34 kts | 69° |
| 2026-05-07 04:44 | -33.93348 | 151.17660 | 3416 ft | 15 kts | 75° |
| 2026-05-07 04:44 | -33.93302 | 151.17743 | 4116 ft | 10 kts | 83° |
| 2026-05-07 04:44 | -33.93241 | 151.17821 | 4608 ft | 11 kts | 270° |
| 2026-05-07 04:44 | -33.93233 | 151.17818 | 5035 ft | 22 kts | 260° |
| 2026-05-07 04:45 | -33.93249 | 151.17744 | 4336 ft | 16 kts | 201° |
| 2026-05-07 04:45 | -33.93257 | 151.17692 | 497 ft | 110 kts | 297° |
| 2026-05-07 04:45 | -33.93333 | 151.17367 | 128 ft | 50 kts | 218° |
| 2026-05-07 04:45 | -33.93613 | 151.17148 | 32 ft | 46 kts | 236° |
| 2026-05-07 04:46 | -33.93806 | 151.16885 | 64 ft | 41 kts | 244° |
| 2026-05-07 04:46 | -33.93969 | 151.16615 | 119 ft | 44 kts | 259° |
| 2026-05-07 04:46 | -33.93601 | 151.16938 | 116 ft | 106 kts | 63° |
| 2026-05-07 04:46 | -33.93246 | 151.17614 | 297 ft | 22 kts | 158° |
| 2026-05-07 04:47 | -33.93412 | 151.17354 | 30 ft | 61 kts | 249° |
| 2026-05-07 04:47 | -33.93626 | 151.17185 | 42 ft | 38 kts | 184° |
| 2026-05-07 04:47 | -33.93748 | 151.17240 | 9 ft | 0 kts | 178° |
| 2026-05-07 04:48 | -33.93742 | 151.17246 | 30 ft | 5 kts | 226° |
| 2026-05-07 04:48 | -33.93733 | 151.17257 | 36 ft | 1 kts | 232° |
| 2026-05-07 04:48 | -33.93682 | 151.17157 | 113 ft | 63 kts | 328° |
| 2026-05-07 04:48 | -33.93145 | 151.17335 | 183 ft | 69 kts | 340° |
| 2026-05-07 04:49 | -33.92764 | 151.17491 | 50 ft | 33 kts | 207° |
| 2026-05-07 04:49 | -33.92727 | 151.17490 | 27 ft | 4 kts | 258° |
| 2026-05-07 04:49 | -33.92728 | 151.17486 | 27 ft | 0 kts | 253° |